Time;durP1;ratioP1;P1;durP2;ratioP2;P2;SDS_P1;SDS_P2;PMS_P1;PMS_P2;Temp;Humidity;BMP_temperature;BMP_pressure;BME280_temperature;BME280_humidity;BME280_pressure;Samples;Min_cycle;Max_cycle;Signal;HPM_P1;HPM_P2
2022/12/25 00:01:56;;;;;;;;;42.00;35.67;;;;;5.19;100.00;99955.38;6314853;20;2857670;-54
2022/12/25 00:04:24;;;;;;;;;56.50;45.50;;;;;5.21;100.00;99972.13;6313705;20;2848199;-56
2022/12/25 00:06:54;;;;;;;;;58.50;49.50;;;;;5.00;100.00;99976.41;6285352;20;2869104;-55
2022/12/25 00:09:23;;;;;;;;;60.50;47.50;;;;;5.13;100.00;99972.41;6284509;20;2872242;-54
2022/12/25 00:11:52;;;;;;;;;52.00;40.33;;;;;4.98;100.00;99978.28;6285187;20;3610662;-56
2022/12/25 00:14:21;;;;;;;;;46.33;36.00;;;;;5.16;100.00;99977.63;6317222;20;3617041;-55
2022/12/25 00:16:50;;;;;;;;;38.33;34.67;;;;;5.38;100.00;99983.06;6285276;20;2861789;-55
2022/12/25 00:19:19;;;;;;;;;39.67;32.00;;;;;5.44;100.00;99987.31;6315038;20;3607703;-56
2022/12/25 00:21:49;;;;;;;;;37.67;28.33;;;;;5.40;100.00;99991.88;6281722;20;3615986;-56
2022/12/25 00:24:18;;;;;;;;;37.33;33.33;;;;;5.29;100.00;99986.03;6314737;20;2867103;-57
2022/12/25 00:26:47;;;;;;;;;38.67;33.00;;;;;5.03;100.00;99989.63;6316957;20;3620166;-55
2022/12/25 00:29:16;;;;;;;;;45.33;37.00;;;;;5.04;100.00;99983.38;6281249;20;2863924;-57
2022/12/25 00:31:45;;;;;;;;;47.67;35.33;;;;;5.12;100.00;99999.09;6315228;20;3616929;-54
2022/12/25 00:34:13;;;;;;;;;32.00;29.00;;;;;5.47;100.00;99998.69;6281651;20;2852495;-56
2022/12/25 00:36:42;;;;;;;;;34.00;26.00;;;;;5.66;100.00;99992.72;6280392;20;2862899;-55
2022/12/25 00:39:12;;;;;;;;;36.67;32.67;;;;;5.82;100.00;100004.56;6286312;20;2867070;-56
2022/12/25 00:44:28;;;;;;;;;34.00;28.00;;;;;6.05;100.00;100010.84;6313457;20;2848323;-57
2022/12/25 00:46:57;;;;;;;;;34.00;29.00;;;;;6.09;100.00;100012.47;6284616;20;2848314;-57
2022/12/25 00:49:27;;;;;;;;;34.33;28.67;;;;;6.12;100.00;100012.38;6282144;20;2867166;-57
2022/12/25 00:51:55;;;;;;;;;30.00;26.00;;;;;6.19;100.00;100012.97;6313819;20;2844040;-57
2022/12/25 00:54:24;;;;;;;;;29.50;25.00;;;;;6.29;100.00;100014.38;6284181;20;2847328;-55
2022/12/25 00:56:54;;;;;;;;;26.33;26.33;;;;;6.21;100.00;100012.00;6282732;20;2859873;-57
2022/12/25 00:59:23;;;;;;;;;30.00;29.67;;;;;6.08;100.00;100005.41;6307824;20;2862784;-57
2022/12/25 01:01:52;;;;;;;;;40.00;36.33;;;;;5.82;100.00;100001.00;6310827;20;3607697;-57
2022/12/25 01:04:21;;;;;;;;;43.00;35.00;;;;;5.61;100.00;100006.22;6276107;20;2861754;-55
2022/12/25 01:06:49;;;;;;;;;44.00;39.00;;;;;5.68;100.00;100014.84;6282835;20;2855541;-56
2022/12/25 01:12:07;;;;;;;;;33.00;32.00;;;;;5.42;100.00;100013.97;6314833;20;2865057;-56
2022/12/25 01:14:36;;;;;;;;;42.33;35.33;;;;;5.77;100.00;100014.53;6311061;20;2852443;-57
2022/12/25 01:17:05;;;;;;;;;33.00;31.33;;;;;5.96;100.00;100008.53;6314068;20;3603378;-57
2022/12/25 01:19:33;;;;;;;;;33.50;28.00;;;;;5.82;100.00;100015.22;6280037;20;2844084;-57
2022/12/25 01:22:02;;;;;;;;;33.00;28.00;;;;;5.69;100.00;100025.44;6280347;20;2856505;-56
2022/12/25 01:24:31;;;;;;;;;38.67;32.00;;;;;5.96;100.00;100028.06;6284289;20;3610779;-57
2022/12/25 01:27:00;;;;;;;;;39.33;36.00;;;;;5.77;100.00;100041.16;6281260;20;2867061;-57
2022/12/25 01:29:29;;;;;;;;;42.00;37.00;;;;;5.85;100.00;100036.44;6313645;20;3596154;-55
2022/12/25 01:31:58;;;;;;;;;40.33;36.00;;;;;5.76;100.00;100031.41;6278330;20;2844066;-57
2022/12/25 01:34:27;;;;;;;;;44.67;34.67;;;;;5.80;100.00;100029.53;6316608;20;3622235;-57
2022/12/25 01:36:57;;;;;;;;;36.33;31.00;;;;;5.94;100.00;100024.56;6281654;20;2864956;-54
2022/12/25 01:39:26;;;;;;;;;30.00;26.50;;;;;5.89;100.00;100032.69;6312843;20;2835696;-56
2022/12/25 01:41:55;;;;;;;;;36.50;29.50;;;;;5.92;100.00;100032.63;6281725;20;2856638;-55
2022/12/25 01:44:36;;;;;;;;;33.50;25.50;;;;;5.94;100.00;100029.91;6282812;20;2860753;-58
2022/12/25 01:47:06;;;;;;;;;30.00;28.00;;;;;5.99;100.00;100032.41;6278359;20;2849224;-57
2022/12/25 01:49:39;;;;;;;;;32.00;21.00;;;;;5.94;100.00;100045.91;6280716;20;2862778;-56
2022/12/25 01:52:14;;;;;;;;;28.50;22.50;;;;;5.93;100.00;100046.81;6312095;20;2855483;-55
2022/12/25 01:55:03;;;;;;;;;29.00;25.50;;;;;5.90;100.00;100060.25;6277155;20;2834764;-56
2022/12/25 01:57:35;;;;;;;;;37.33;29.00;;;;;6.04;100.00;100059.75;6279476;20;2874385;-56
2022/12/25 02:00:07;;;;;;;;;41.00;33.00;;;;;6.01;100.00;100063.41;6310343;20;3627363;-55
2022/12/25 02:02:36;;;;;;;;;37.00;31.50;;;;;5.87;100.00;100055.91;6280209;20;2857726;-53
2022/12/25 02:05:26;;;;;;;;;38.00;32.00;;;;;6.06;100.00;100044.59;6279810;20;2747170;-57
2022/12/25 02:08:00;;;;;;;;;30.00;26.50;;;;;5.95;100.00;100031.66;6310890;20;2847151;-56
2022/12/25 02:10:29;;;;;;;;;37.33;31.00;;;;;5.83;100.00;100043.59;6275819;20;2872314;-55
2022/12/25 02:13:00;;;;;;;;;34.67;28.00;;;;;5.80;100.00;100059.69;6314364;20;3606598;-56
2022/12/25 02:16:05;;;;;;;;;39.00;33.00;;;;;5.76;100.00;100068.72;6275567;20;2749266;-57
2022/12/25 02:18:51;;;;;;;;;25.00;25.00;;;;;5.78;100.00;100072.19;6311150;20;2843021;-55
2022/12/25 02:22:23;;;;;;;;;34.33;30.00;;;;;5.78;100.00;100058.88;6280086;20;2866209;-54
2022/12/25 02:25:37;;;;;;;;;42.00;36.50;;;;;5.84;100.00;100055.97;6309887;20;2852387;-57
2022/12/25 02:28:39;;;;;;;;;47.33;39.00;;;;;5.77;100.00;100054.47;6280306;20;3621286;-57
2022/12/25 02:31:31;;;;;;;;;48.33;38.00;;;;;5.83;100.00;100056.06;6309948;20;3631612;-55
2022/12/25 02:34:25;;;;;;;;;47.00;37.33;;;;;5.76;100.00;100058.06;6277568;20;3625323;-57
2022/12/25 02:37:19;;;;;;;;;43.67;35.67;;;;;5.78;100.00;100061.53;6309536;20;3626305;-58
2022/12/25 02:40:22;;;;;;;;;38.67;35.00;;;;;5.58;100.00;100061.38;6309094;20;3579452;-57
2022/12/25 03:07:15;;;;;;;;;42.67;35.67;;;;;5.87;100.00;100066.56;6311550;20;3605644;-55
2022/12/25 03:13:27;;;;;;;;;39.67;33.33;;;;;5.86;100.00;100074.59;6314428;20;3622244;-57
2022/12/25 03:18:44;;;;;;;;;37.33;34.33;;;;;5.77;100.00;100083.78;6314864;20;3590979;-55
2022/12/25 03:26:54;;;;;;;;;40.33;35.00;;;;;5.80;100.00;100106.78;6312870;20;3608598;-57
2022/12/25 03:32:43;;;;;;;;;38.33;30.33;;;;;5.83;100.00;100098.69;6311459;20;3620164;-57
2022/12/25 03:35:33;;;;;;;;;37.50;35.00;;;;;5.79;100.00;100095.25;6307337;20;2831623;-55
2022/12/25 04:36:08;;;;;;;;;40.33;28.00;;;;;5.42;100.00;100096.50;6315607;20;3629458;-57
2022/12/25 04:38:39;;;;;;;;;37.33;32.67;;;;;5.54;100.00;100111.22;6284008;20;3608723;-54
2022/12/25 04:41:12;;;;;;;;;38.33;30.33;;;;;5.52;100.00;100117.53;6315676;20;3613796;-55
2022/12/25 04:43:41;;;;;;;;;33.00;28.67;;;;;5.46;100.00;100114.16;6312198;20;3595102;-57
2022/12/25 04:46:11;;;;;;;;;35.00;30.33;;;;;5.42;100.00;100123.16;6313161;20;2858776;-57
2022/12/25 04:48:40;;;;;;;;;35.33;32.67;;;;;5.45;100.00;100128.38;6312384;20;2867037;-55
2022/12/25 04:51:21;;;;;;;;;31.33;29.67;;;;;5.48;100.00;100120.28;6316720;20;3589950;-57
2022/12/25 04:53:52;;;;;;;;;37.33;32.67;;;;;5.46;100.00;100124.78;6311125;20;2869107;-56
2022/12/25 04:56:22;;;;;;;;;41.50;36.00;;;;;5.43;100.00;100114.25;6314754;20;2846164;-53
2022/12/25 04:58:51;;;;;;;;;35.33;34.00;;;;;5.50;100.00;100109.56;6281286;20;2852415;-56
2022/12/25 05:01:20;;;;;;;;;35.00;31.00;;;;;5.52;100.00;100120.19;6312412;20;3603387;-57
2022/12/25 05:03:49;;;;;;;;;34.50;29.50;;;;;5.41;100.00;100121.41;6279307;20;2858642;-56
2022/12/25 05:06:19;;;;;;;;;38.33;33.33;;;;;5.39;100.00;100125.91;6279283;20;3614839;-55
2022/12/25 05:08:46;;;;;;;;;22.50;12.50;;;;;5.53;100.00;100130.81;6313426;20;2816950;-57
2022/12/25 05:11:16;;;;;;;;;46.00;38.00;;;;;5.46;100.00;100132.78;6284849;20;2849299;-58
2022/12/25 05:13:44;;;;;;;;;38.50;35.00;;;;;5.52;100.00;100131.69;6282120;20;2862139;-54
2022/12/25 05:16:19;;;;;;;;;39.50;36.50;;;;;5.52;100.00;100130.84;6279834;20;2862122;-57
2022/12/25 05:18:51;;;;;;;;;47.33;38.67;;;;;5.34;100.00;100134.97;6282988;20;2869038;-55
2022/12/25 05:21:21;;;;;;;;;54.67;40.00;;;;;5.33;100.00;100144.75;6309509;20;3608629;-54
2022/12/25 05:23:51;;;;;;;;;44.33;38.00;;;;;5.31;100.00;100151.94;6312861;20;3608593;-57
2022/12/25 05:26:25;;;;;;;;;40.33;36.00;;;;;5.38;100.00;100142.81;6279971;20;2848369;-56
2022/12/25 05:28:55;;;;;;;;;35.33;32.00;;;;;5.40;100.00;100151.63;6311005;20;3609822;-53
2022/12/25 05:31:24;;;;;;;;;82.33;63.67;;;;;5.43;100.00;100161.31;6281544;20;3670055;-55
2022/12/25 05:33:54;;;;;;;;;86.67;69.67;;;;;5.39;100.00;100160.53;6311988;20;3663798;-55
2022/12/25 05:36:23;;;;;;;;;89.67;68.67;;;;;5.29;100.00;100161.75;6276591;20;3666930;-54
2022/12/25 05:38:53;;;;;;;;;77.67;56.00;;;;;5.26;100.00;100151.19;6279275;20;3646205;-55
2022/12/25 05:41:23;;;;;;;;;58.67;46.33;;;;;5.18;100.00;100166.56;6311723;20;2876602;-57
2022/12/25 05:43:57;;;;;;;;;52.67;40.00;;;;;5.27;100.00;100172.47;6309630;20;3632569;-55
2022/12/25 05:46:25;;;;;;;;;36.33;32.33;;;;;5.26;100.00;100184.00;6313621;20;3596214;-55
2022/12/25 05:48:55;;;;;;;;;51.00;38.00;;;;;5.39;100.00;100186.28;6280810;20;3632652;-56
2022/12/25 05:51:24;;;;;;;;;46.67;37.67;;;;;5.41;100.00;100180.00;6313497;20;3605610;-55
2022/12/25 05:53:54;;;;;;;;;43.67;36.00;;;;;5.49;100.00;100175.28;6280841;20;2867195;-53
2022/12/25 05:56:23;;;;;;;;;47.00;39.33;;;;;5.46;100.00;100186.03;6314254;20;3626471;-57
2022/12/25 05:58:52;;;;;;;;;51.00;41.33;;;;;5.60;100.00;100184.72;6275862;20;2872264;-56
2022/12/25 06:01:26;;;;;;;;;33.00;31.00;;;;;5.37;100.00;100180.13;6310938;20;2865074;-55
2022/12/25 06:03:56;;;;;;;;;51.67;38.67;;;;;5.24;100.00;100171.69;6304535;20;2866039;-57
2022/12/25 06:06:25;;;;;;;;;55.00;43.00;;;;;5.02;100.00;100182.13;6311120;20;2862934;-56
2022/12/25 06:08:55;;;;;;;;;63.33;50.33;;;;;5.12;100.00;100185.38;6280779;20;3636847;-57
2022/12/25 06:11:25;;;;;;;;;74.33;56.00;;;;;4.97;100.00;100182.25;6311066;20;3640914;-58
2022/12/25 06:13:54;;;;;;;;;75.00;57.67;;;;;5.12;100.00;100188.03;6311533;20;3639841;-57
2022/12/25 06:16:24;;;;;;;;;66.00;50.00;;;;;5.12;100.00;100188.03;6308522;20;3652365;-57
2022/12/25 06:18:53;;;;;;;;;68.67;52.00;;;;;5.14;100.00;100191.53;6311887;20;3633610;-56
2022/12/25 06:21:23;;;;;;;;;54.00;41.33;;;;;5.14;100.00;100196.88;6310927;20;3615929;-56
2022/12/25 06:23:52;;;;;;;;;59.00;45.50;;;;;5.16;100.00;100195.00;6309192;20;2863977;-57
2022/12/25 06:26:20;;;;;;;;;56.00;41.00;;;;;5.23;100.00;100193.91;6280089;20;2861763;-56
2022/12/25 06:28:50;;;;;;;;;52.00;40.67;;;;;5.22;100.00;100194.81;6277916;20;2859708;-55
2022/12/25 06:31:22;;;;;;;;;55.00;44.00;;;;;5.12;100.00;100180.94;6303004;20;2845187;-56
2022/12/25 06:33:52;;;;;;;;;52.00;38.33;;;;;5.18;100.00;100182.53;6276876;20;3638818;-55
2022/12/25 06:36:26;;;;;;;;;46.00;38.00;;;;;5.13;100.00;100184.44;6309397;20;2855708;-56
2022/12/25 06:38:58;;;;;;;;;44.33;38.00;;;;;5.31;100.00;100183.88;6314006;20;3604431;-55
2022/12/25 06:41:29;;;;;;;;;45.67;36.67;;;;;5.25;100.00;100184.06;6273057;20;2867996;-56
2022/12/25 06:44:00;;;;;;;;;29.67;28.00;;;;;5.33;100.00;100189.16;6308648;20;3584875;-54
2022/12/25 06:46:30;;;;;;;;;30.50;27.50;;;;;5.50;100.00;100184.13;6307539;20;2852352;-56
2022/12/25 06:49:00;;;;;;;;;39.00;33.00;;;;;5.45;100.00;100194.06;6273481;20;3619048;-55
2022/12/25 06:51:31;;;;;;;;;37.33;30.33;;;;;5.43;100.00;100183.50;6313489;20;3605519;-56
2022/12/25 06:54:03;;;;;;;;;39.50;35.50;;;;;5.47;100.00;100200.22;6282529;20;2852540;-57
2022/12/25 06:56:34;;;;;;;;;38.00;35.00;;;;;5.43;100.00;100204.78;6276561;20;3614894;-56
2022/12/25 06:59:08;;;;;;;;;41.00;32.33;;;;;5.55;100.00;100202.63;6309180;20;2872244;-57
2022/12/25 07:01:56;;;;;;;;;41.00;34.67;;;;;5.50;100.00;100211.66;6306092;20;2861763;-56
2022/12/25 07:04:31;;;;;;;;;42.50;36.50;;;;;5.59;100.00;100220.28;6305226;20;2859743;-54
2022/12/25 07:07:02;;;;;;;;;46.33;38.00;;;;;5.78;100.00;100229.41;6280069;20;3605641;-56
2022/12/25 07:09:37;;;;;;;;;57.00;44.67;;;;;5.85;100.00;100225.63;6310029;20;2870221;-56
2022/12/25 07:12:24;;;;;;;;;49.00;39.00;;;;;5.91;100.00;100230.72;6309240;20;3628462;-56
2022/12/25 07:14:54;;;;;;;;;45.00;38.00;;;;;5.86;100.00;100232.69;6308585;20;3599288;-54
2022/12/25 07:17:24;;;;;;;;;47.33;38.67;;;;;5.93;100.00;100236.03;6275197;20;2860869;-56
2022/12/25 07:19:53;;;;;;;;;49.00;36.00;;;;;6.05;100.00;100245.41;6311089;20;3629500;-57
2022/12/25 07:22:23;;;;;;;;;45.33;37.00;;;;;5.93;100.00;100252.00;6274736;20;2858787;-57
2022/12/25 07:24:52;;;;;;;;;35.67;32.67;;;;;6.04;100.00;100257.00;6304725;20;2862005;-57
2022/12/25 07:27:21;;;;;;;;;37.67;33.33;;;;;6.18;100.00;100260.06;6310999;20;3610905;-57
2022/12/25 07:29:49;;;;;;;;;48.50;42.00;;;;;6.29;100.00;100255.25;6275084;20;2491966;-54
2022/12/25 07:32:18;;;;;;;;;46.00;39.50;;;;;6.21;100.00;100256.41;6276978;20;2872139;-56
2022/12/25 07:34:46;;;;;;;;;53.00;43.50;;;;;6.02;100.00;100266.84;6275727;20;2860728;-54
2022/12/25 07:37:15;;;;;;;;;40.50;36.00;;;;;6.03;100.00;100266.81;6276612;20;2858864;-57
2022/12/25 07:39:44;;;;;;;;;44.33;38.00;;;;;6.01;100.00;100267.78;6279794;20;2869029;-57
2022/12/25 07:42:13;;;;;;;;;45.00;38.00;;;;;6.05;100.00;100266.75;6315254;20;2862932;-57
2022/12/25 07:44:42;;;;;;;;;53.00;41.50;;;;;5.94;100.00;100281.28;6281701;20;2844107;-55
2022/12/25 07:47:10;;;;;;;;;54.00;45.00;;;;;5.86;100.00;100291.31;6278066;20;2500416;-51
2022/12/25 07:49:38;;;;;;;;;53.00;42.00;;;;;5.77;100.00;100291.63;6282529;20;2851382;-57
2022/12/25 07:52:07;;;;;;;;;54.00;42.50;;;;;5.68;100.00;100299.88;6280994;20;2861758;-58
2022/12/25 07:54:36;;;;;;;;;54.00;46.00;;;;;5.82;100.00;100295.00;6283887;20;3625268;-55
2022/12/25 07:57:06;;;;;;;;;48.00;38.00;;;;;5.99;100.00;100305.13;6311941;20;2854525;-57
2022/12/25 07:59:36;;;;;;;;;62.33;49.00;;;;;6.30;100.00;100302.31;6280910;20;2873344;-56
2022/12/25 08:02:06;;;;;;;;;65.33;51.00;;;;;6.33;100.00;100302.22;6312835;20;3622726;-56
2022/12/25 08:04:35;;;;;;;;;65.00;48.00;;;;;6.59;100.00;100306.63;6312021;20;2867059;-58
2022/12/25 08:07:05;;;;;;;;;58.67;48.00;;;;;6.75;100.00;100314.97;6309123;20;2861832;-56
2022/12/25 08:09:35;;;;;;;;;57.67;44.33;;;;;6.87;100.00;100320.78;6314901;20;2862995;-58
2022/12/25 08:12:05;;;;;;;;;57.00;46.00;;;;;6.62;100.00;100315.47;6310738;20;2861865;-58
2022/12/25 08:14:33;;;;;;;;;63.00;50.00;;;;;6.90;100.00;100326.00;6313940;20;2865984;-55
2022/12/25 08:17:03;;;;;;;;;72.33;57.67;;;;;6.79;100.00;100329.97;6278350;20;3613817;-56
2022/12/25 08:19:33;;;;;;;;;70.00;53.33;;;;;6.65;100.00;100326.91;6312768;20;3640918;-59
2022/12/25 08:22:02;;;;;;;;;88.33;72.33;;;;;6.59;100.00;100319.13;6309486;20;3669026;-57
2022/12/25 08:24:32;;;;;;;;;74.00;56.33;;;;;6.25;100.00;100335.41;6274932;20;3635803;-57
2022/12/25 08:27:01;;;;;;;;;60.00;49.00;;;;;5.91;100.00;100328.47;6306106;20;2860821;-55
2022/12/25 08:29:32;;;;;;;;;98.33;89.00;;;;;5.97;100.00;100327.44;6276507;20;3658686;-58
2022/12/25 08:32:02;;;;;;;;;76.67;58.33;;;;;6.10;100.00;100339.44;6276565;20;3641162;-60
2022/12/25 08:34:32;;;;;;;;;62.00;48.00;;;;;6.42;100.00;100335.69;6305370;20;3627367;-59
2022/12/25 08:37:02;;;;;;;;;75.00;57.00;;;;;6.88;100.00;100336.75;6304986;20;3641017;-60
2022/12/25 08:39:31;;;;;;;;;64.50;52.00;;;;;7.09;100.00;100337.78;6306292;20;2869050;-60
2022/12/25 08:41:59;;;;;;;;;81.67;63.67;;;;;7.12;100.00;100340.34;6272908;20;3635656;-60
2022/12/25 08:44:29;;;;;;;;;59.33;47.00;;;;;6.75;100.00;100333.66;6274821;20;2857640;-59
2022/12/25 08:46:57;;;;;;;;;59.50;48.00;;;;;6.57;100.00;100331.63;6309019;20;2853400;-60
2022/12/25 08:49:27;;;;;;;;;56.33;43.67;;;;;6.69;100.00;100333.88;6277568;20;3620103;-60
2022/12/25 08:51:56;;;;;;;;;43.67;37.33;;;;;6.81;100.00;100328.09;6312566;20;3606511;-52
2022/12/25 08:54:25;;;;;;;;;42.50;37.00;;;;;6.82;100.00;100327.19;6277666;20;2860821;-53
2022/12/25 08:56:54;;;;;;;;;37.67;34.00;;;;;6.73;100.00;100323.97;6277619;20;2852531;-53
2022/12/25 08:59:29;;;;;;;;;25.50;21.00;;;;;6.97;100.00;100331.06;6305901;20;2487765;-54
2022/12/25 09:01:58;;;;;;;;;57.00;45.67;;;;;7.17;100.00;100330.34;6278979;20;2869064;-56
2022/12/25 09:04:28;;;;;;;;;60.67;46.00;;;;;7.46;100.00;100336.41;6311148;20;3631497;-55
2022/12/25 09:06:58;;;;;;;;;72.00;56.33;;;;;7.70;100.00;100339.91;6308600;20;3621098;-56
2022/12/25 09:09:29;;;;;;;;;118.25;102.75;;;;;7.75;100.00;100353.09;6309967;20;4491919;-55
2022/12/25 09:11:58;;;;;;;;;83.33;64.33;;;;;7.90;100.00;100353.38;6274604;20;3653417;-52
2022/12/25 09:14:29;;;;;;;;;69.33;55.00;;;;;7.89;100.00;100356.09;6309095;20;3623216;-55
2022/12/25 09:16:58;;;;;;;;;73.33;57.00;;;;;8.00;100.00;100361.88;6304990;20;3634641;-55
2022/12/25 09:19:28;;;;;;;;;78.33;59.33;;;;;7.97;100.00;100359.31;6307228;20;3651473;-54
2022/12/25 09:21:58;;;;;;;;;61.33;49.00;;;;;8.33;100.00;100361.44;6276308;20;2873223;-55
2022/12/25 09:24:27;;;;;;;;;91.67;79.00;;;;;8.30;100.00;100362.44;6305980;20;3680475;-54
2022/12/25 09:26:58;;;;;;;;;79.25;61.00;;;;;8.54;100.00;100367.75;6278455;20;3653646;-55
2022/12/25 09:29:27;;;;;;;;;63.33;49.67;;;;;8.88;100.00;100369.84;6310647;20;3612770;-56
2022/12/25 09:31:56;;;;;;;;;86.00;73.67;;;;;9.12;100.00;100367.88;6275088;20;3661741;-56
2022/12/25 09:34:26;;;;;;;;;72.33;60.00;;;;;8.63;100.00;100359.31;6273129;20;3595121;-56
2022/12/25 09:36:55;;;;;;;;;72.25;56.50;;;;;8.57;100.00;100365.78;6310478;20;3633055;-57
2022/12/25 09:39:25;;;;;;;;;70.67;56.33;;;;;8.66;100.00;100367.22;6308784;20;3605524;-56
2022/12/25 09:42:06;;;;;;;;;69.00;51.00;;;;;8.65;100.00;100367.28;6307715;20;2769041;-55
2022/12/25 09:44:57;;;;;;;;;64.67;52.00;;;;;8.85;100.00;100369.97;6272874;20;3606551;-54
2022/12/25 09:47:32;;;;;;;;;69.33;53.33;;;;;9.15;100.00;100372.22;6308996;20;3633642;-53
2022/12/25 09:50:36;;;;;;;;;57.33;47.33;;;;;9.01;100.00;100372.84;6273137;20;2868051;-57
2022/12/25 09:53:39;;;;;;;;;57.33;44.00;;;;;8.75;100.00;100374.00;6306817;20;3614853;-57
2022/12/25 09:56:21;;;;;;;;;62.67;49.00;;;;;8.43;100.00;100375.34;6303095;20;3617035;-57
2022/12/25 09:58:52;;;;;;;;;63.00;49.67;;;;;8.50;100.00;100374.16;6310490;20;3611701;-56
2022/12/25 10:01:38;;;;;;;;;69.00;51.00;;;;;8.47;100.00;100375.16;6305313;20;3635671;-57
2022/12/25 10:04:42;;;;;;;;;66.00;51.67;;;;;8.31;100.00;100371.34;6306956;20;3639834;-55
2022/12/25 10:07:51;;;;;;;;;67.00;52.00;;;;;8.49;100.00;100372.41;6309754;20;2863932;-57
2022/12/25 10:10:48;;;;;;;;;73.00;58.67;;;;;8.73;100.00;100366.00;6306071;20;3628537;-56
2022/12/25 10:14:22;;;;;;;;;74.33;57.00;;;;;8.82;100.00;100361.19;6308040;20;3641007;-55
2022/12/25 10:17:34;;;;;;;;;67.33;55.00;;;;;8.81;100.00;100365.69;6268435;20;2872323;-55
2022/12/25 10:20:41;;;;;;;;;68.00;52.67;;;;;8.85;100.00;100359.28;6304591;20;3626352;-51
2022/12/25 10:23:45;;;;;;;;;68.67;53.00;;;;;8.86;100.00;100370.84;6304470;20;3631529;-55
2022/12/25 10:26:21;;;;;;;;;65.33;49.00;;;;;8.96;100.00;100378.41;6304438;20;2874376;-56
2022/12/25 10:29:18;;;;;;;;;63.33;47.00;;;;;8.81;100.00;100375.53;6307797;20;3638925;-56
2022/12/25 10:31:52;;;;;;;;;59.67;47.33;;;;;8.89;100.00;100376.94;6307891;20;2876854;-56
2022/12/25 10:34:26;;;;;;;;;53.33;41.67;;;;;8.89;100.00;100366.22;6306251;20;3608649;-56
2022/12/25 10:36:56;;;;;;;;;59.00;46.33;;;;;9.00;100.00;100361.28;6276852;20;2868105;-53
2022/12/25 10:39:26;;;;;;;;;55.00;43.50;;;;;8.94;100.00;100364.22;6303841;20;2851370;-56
2022/12/25 10:42:25;;;;;;;;;58.00;43.67;;;;;9.10;100.00;100363.53;6276553;20;3615988;-55
2022/12/25 10:45:07;;;;;;;;;82.67;68.33;;;;;9.27;100.00;100354.72;6305311;20;3669024;-57
2022/12/25 10:47:41;;;;;;;;;58.67;47.00;;;;;9.37;99.52;100354.25;6277015;20;2845170;-56
2022/12/25 10:50:23;;;;;;;;;49.33;40.00;;;;;9.34;99.01;100357.06;6304654;20;2851367;-56
2022/12/25 10:53:04;;;;;;;;;59.00;45.33;;;;;9.54;99.44;100349.94;6299058;20;3628414;-56
2022/12/25 10:55:33;;;;;;;;;69.33;52.67;;;;;9.81;97.60;100356.66;6308823;20;3651361;-57
2022/12/25 10:58:04;;;;;;;;;64.00;50.00;;;;;10.06;96.28;100356.34;6271752;20;3637816;-57
2022/12/25 11:00:34;;;;;;;;;69.67;54.33;;;;;9.65;98.11;100358.31;6301812;20;3626644;-56
2022/12/25 11:03:03;;;;;;;;;61.33;48.00;;;;;9.67;98.18;100359.13;6307856;20;2871312;-55
2022/12/25 11:05:35;;;;;;;;;67.67;53.33;;;;;9.63;98.59;100362.88;6306326;20;3625469;-57
2022/12/25 11:08:21;;;;;;;;;66.33;53.00;;;;;9.87;98.93;100363.53;6302931;20;3618116;-58
2022/12/25 11:11:18;;;;;;;;;70.67;55.33;;;;;10.10;96.92;100357.06;6307179;20;3629448;-56
2022/12/25 11:14:00;;;;;;;;;72.67;55.00;;;;;10.09;97.17;100355.34;6273173;20;3637743;-57
2022/12/25 11:16:38;;;;;;;;;71.00;54.25;;;;;10.58;95.58;100352.91;6311036;20;3639830;-58
2022/12/25 11:19:29;;;;;;;;;62.67;49.33;;;;;10.77;93.04;100347.47;6313455;20;3634630;-57
2022/12/25 11:22:02;;;;;;;;;57.33;46.00;;;;;10.96;91.91;100350.94;6311526;20;3617985;-57
2022/12/25 11:24:33;;;;;;;;;58.33;46.33;;;;;11.13;90.75;100355.41;6313271;20;3607548;-57
2022/12/25 11:27:05;;;;;;;;;48.33;37.00;;;;;11.07;90.63;100349.50;6310219;20;3623316;-57
2022/12/25 11:29:57;;;;;;;;;86.00;75.75;;;;;11.24;91.01;100343.22;6309738;20;4416926;-57
2022/12/25 11:32:45;;;;;;;;;52.33;41.33;;;;;11.12;91.96;100342.94;6309081;20;3605543;-57
2022/12/25 11:35:21;;;;;;;;;43.67;38.00;;;;;10.95;90.79;100338.47;6309797;20;3609826;-57
2022/12/25 11:37:52;;;;;;;;;39.00;33.67;;;;;11.13;90.30;100328.53;6309704;20;3604436;-58
2022/12/25 11:40:47;;;;;;;;;32.33;28.33;;;;;10.66;91.43;100331.91;6312554;20;3608647;-57
2022/12/25 11:43:45;;;;;;;;;41.00;31.67;;;;;10.73;92.25;100336.00;6279460;20;3608691;-56
2022/12/25 11:46:40;;;;;;;;;36.67;32.00;;;;;10.83;92.66;100330.16;6284210;20;3594118;-56
2022/12/25 11:49:18;;;;;;;;;38.00;34.33;;;;;10.80;92.82;100331.19;6277500;20;3603445;-56
2022/12/25 11:51:52;;;;;;;;;51.67;41.00;;;;;10.66;94.27;100329.22;6314474;20;3603762;-55
2022/12/25 11:54:31;;;;;;;;;55.00;43.67;;;;;10.38;95.98;100342.31;6278447;20;2871284;-55
2022/12/25 11:57:04;;;;;;;;;54.33;42.67;;;;;10.39;95.73;100338.69;6309867;20;2862919;-57
2022/12/25 11:59:55;;;;;;;;;53.67;42.00;;;;;10.27;96.33;100338.38;6307327;20;3600280;-56
2022/12/25 12:03:18;;;;;;;;;59.67;48.00;;;;;10.67;95.35;100339.03;6310155;20;3597193;-56
2022/12/25 12:06:01;;;;;;;;;47.50;41.00;;;;;10.77;94.32;100342.97;6304918;20;2500295;-50
2022/12/25 12:08:32;;;;;;;;;37.33;34.67;;;;;10.68;94.43;100338.06;6284081;20;3603633;-59
2022/12/25 12:11:39;;;;;;;;;35.00;32.00;;;;;10.46;94.70;100332.06;6275574;20;3605455;-58
2022/12/25 12:14:51;;;;;;;;;43.67;35.00;;;;;10.59;94.83;100333.19;6315104;20;3614806;-56
2022/12/25 12:17:20;;;;;;;;;41.00;34.67;;;;;10.61;94.62;100328.59;6279744;20;3607632;-56
2022/12/25 12:19:50;;;;;;;;;40.33;36.00;;;;;10.66;94.49;100322.97;6276846;20;2855606;-55
2022/12/25 12:22:27;;;;;;;;;37.67;35.00;;;;;10.74;94.66;100327.03;6312835;20;3604426;-56
2022/12/25 12:25:05;;;;;;;;;40.67;34.00;;;;;10.82;94.92;100331.09;6279203;20;3611751;-55
2022/12/25 12:27:40;;;;;;;;;81.67;67.67;;;;;11.14;93.21;100330.28;6275707;20;3670568;-56
2022/12/25 12:30:34;;;;;;;;;69.67;56.00;;;;;11.35;92.21;100333.63;6276575;20;3630474;-57
2022/12/25 12:33:06;;;;;;;;;70.33;55.67;;;;;11.39;91.77;100328.94;6273533;20;3621286;-56
2022/12/25 12:35:38;;;;;;;;;49.67;41.67;;;;;11.40;91.50;100314.53;6310337;20;3567071;-57
2022/12/25 12:38:17;;;;;;;;;42.50;37.00;;;;;11.47;90.98;100326.69;6275858;20;2833628;-55
2022/12/25 12:41:06;;;;;;;;;39.00;34.67;;;;;11.60;90.71;100327.75;6276216;20;3614894;-57
2022/12/25 12:43:56;;;;;;;;;39.00;34.67;;;;;11.39;90.72;100328.94;6311633;20;3596274;-57
2022/12/25 12:46:36;;;;;;;;;44.67;37.00;;;;;11.60;90.83;100333.13;6278207;20;2866007;-57
2022/12/25 12:49:28;;;;;;;;;47.33;40.33;;;;;11.70;90.00;100336.19;6309850;20;3599281;-55
2022/12/25 12:52:34;;;;;;;;;47.67;37.33;;;;;11.81;90.36;100331.06;6277951;20;3615878;-58
2022/12/25 12:55:11;;;;;;;;;46.00;37.67;;;;;11.91;90.00;100336.84;6307116;20;3625304;-56
2022/12/25 12:57:41;;;;;;;;;41.00;35.33;;;;;11.98;89.54;100337.34;6312198;20;3581569;-58
2022/12/25 13:00:20;;;;;;;;;42.33;34.33;;;;;12.05;88.38;100327.97;6274969;20;3622165;-57
2022/12/25 13:03:08;;;;;;;;;46.67;37.00;;;;;12.14;88.00;100326.56;6273750;20;2863925;-59
2022/12/25 13:06:00;;;;;;;;;54.33;43.00;;;;;12.05;88.75;100323.44;6307298;20;3614965;-59
2022/12/25 13:08:57;;;;;;;;;52.00;37.67;;;;;12.15;89.33;100323.81;6310419;20;3627480;-59
2022/12/25 13:11:37;;;;;;;;;51.67;39.00;;;;;12.10;88.49;100330.41;6282588;20;3605523;-59
2022/12/25 13:14:20;;;;;;;;;42.00;35.00;;;;;12.25;87.44;100327.69;6277792;20;2862823;-59
2022/12/25 13:16:52;;;;;;;;;42.67;34.67;;;;;12.42;87.22;100331.22;6315047;20;3599358;-59